CheckWX is a tool to help pilots better visualize weather data.  It is not intended as a substitute for an official pre-flight weather briefing.

03:21:51 UTC

KSCK METAR
Stockton Metropolitan Airport
Stockton, California, USA
Current

27 mins ago

KSCK 230255Z 27010KT 10SM CLR 27/09 A2985 RMK AO2 SLP107 T02720094 53005
Observed
Sep-23 @ 02:55 UTC
Wind
  • 270° at 10 KTS
Visibility
10 SM
Flight Rules
VFR
Cloud Levels
  • Clear skies
Temperature
27°C / 81°F
Dewpoint
C / 48°F
Humidity
32%
Altimeter
29.85" Hg
Pressure
1010.82 hPa
Previous

1 hour ago

KSCK 230155Z 27005KT 10SM CLR 31/08 A2983 RMK AO2 SLP102 T03060078
Observed
Sep-23 @ 01:55 UTC
Wind
  • 270° at 5 KTS
Visibility
10 SM
Flight Rules
VFR
Cloud Levels
  • Clear skies
Temperature
31°C / 88°F
Dewpoint
C / 46°F
Humidity
24%
Altimeter
29.83" Hg
Pressure
1010.12 hPa
Previous

2 hours ago

KSCK 230055Z 34004KT 10SM CLR 31/09 A2984 RMK AO2 SLP103 T03060089
Observed
Sep-23 @ 00:55 UTC
Wind
  • 340° at 4 KTS
Visibility
10 SM
Flight Rules
VFR
Cloud Levels
  • Clear skies
Temperature
31°C / 88°F
Dewpoint
C / 48°F
Humidity
25%
Altimeter
29.84" Hg
Pressure
1010.52 hPa